createdAt,value
2019-03-06T00:04:07.349Z,1013.62
2019-03-06T00:09:06.829Z,1013.73
2019-03-06T00:14:06.985Z,1013.75
2019-03-06T00:19:06.714Z,1013.73
2019-03-06T00:24:06.915Z,1013.79
2019-03-06T00:29:07.376Z,1013.85
2019-03-06T00:34:06.894Z,1013.88
2019-03-06T00:39:07.348Z,1013.85
2019-03-06T00:44:06.570Z,1013.88
2019-03-06T00:49:06.591Z,1013.87
2019-03-06T00:54:06.809Z,1013.98
2019-03-06T00:59:07.030Z,1013.97
2019-03-06T01:04:06.890Z,1013.94
2019-03-06T01:09:06.839Z,1013.95
2019-03-06T01:13:07.634Z,1013.91
2019-03-06T01:18:06.991Z,1013.91
2019-03-06T01:23:07.227Z,1013.88
2019-03-06T01:28:06.491Z,1013.87
2019-03-06T01:33:07.163Z,1013.91
2019-03-06T01:38:06.426Z,1013.97
2019-03-06T01:43:07.017Z,1013.98
2019-03-06T01:48:06.786Z,1014
2019-03-06T01:53:07.087Z,1014.04
2019-03-06T01:58:07.416Z,1013.99
2019-03-06T02:03:09.642Z,1014.09
2019-03-06T02:07:10.868Z,1014
2019-03-06T02:08:06.912Z,1014
2019-03-06T02:12:07.265Z,1014.06
2019-03-06T02:17:06.684Z,1014.16
2019-03-06T02:22:06.895Z,1014.16
2019-03-06T02:27:07.071Z,1014.08
2019-03-06T02:32:07.430Z,1014.01
2019-03-06T02:37:06.616Z,1013.93
2019-03-06T02:42:07.313Z,1013.96
2019-03-06T02:47:06.845Z,1013.96
2019-03-06T02:52:07.202Z,1014.02
2019-03-06T02:56:07.063Z,1013.95
2019-03-06T03:01:07.013Z,1014.04
2019-03-06T03:06:07.301Z,1013.98
2019-03-06T03:11:06.862Z,1013.98
2019-03-06T03:16:07.409Z,1014
2019-03-06T03:21:06.618Z,1014
2019-03-06T03:26:06.818Z,1013.97
2019-03-06T03:30:08.275Z,1013.94
2019-03-06T03:31:06.521Z,1013.94
2019-03-06T03:35:06.539Z,1014.04
2019-03-06T03:41:06.193Z,1013.98
2019-03-06T03:45:07.945Z,1014.01
2019-03-06T03:50:07.273Z,1014.02
2019-03-06T03:55:06.521Z,1014.01
2019-03-06T04:00:08.632Z,1014.06
2019-03-06T04:05:07.057Z,1014.03
2019-03-06T04:10:07.123Z,1014.03
2019-03-06T04:15:08.691Z,1014.02
2019-03-06T04:20:06.320Z,1013.91
2019-03-06T04:24:06.874Z,1013.9
2019-03-06T04:29:07.122Z,1013.87
2019-03-06T04:34:06.150Z,1013.85
2019-03-06T04:39:07.746Z,1013.8
2019-03-06T04:44:06.923Z,1013.84
2019-03-06T04:49:08.433Z,1013.83
2019-03-06T04:54:06.935Z,1013.92
2019-03-06T04:59:07.279Z,1014.07
2019-03-06T05:04:06.469Z,1014.2
2019-03-06T05:09:08.694Z,1014.13
2019-03-06T05:14:06.957Z,1014.11
2019-03-06T05:19:07.869Z,1014.01
2019-03-06T05:24:06.280Z,1014.01
2019-03-06T05:29:07.177Z,1014.08
2019-03-06T05:34:06.376Z,1014.18
2019-03-06T05:38:07.501Z,1014.2
2019-03-06T05:44:06.635Z,1014.24
2019-03-06T05:48:06.191Z,1014.12
2019-03-06T05:53:06.460Z,1014.08
2019-03-06T05:58:07.083Z,1014.06
2019-03-06T06:03:06.544Z,1014.04
2019-03-06T06:08:06.757Z,1014.05
2019-03-06T06:13:07.594Z,1014.01
2019-03-06T06:18:07.675Z,1013.99
2019-03-06T06:23:06.953Z,1014
2019-03-06T06:28:06.464Z,1013.91
2019-03-06T06:33:06.276Z,1013.84
2019-03-06T06:38:06.476Z,1013.78
2019-03-06T06:43:08.007Z,1013.88
2019-03-06T06:48:06.907Z,1013.88
2019-03-06T06:53:07.180Z,1013.82
2019-03-06T06:58:07.497Z,1013.77
2019-03-06T07:03:08.383Z,1013.76
2019-03-06T07:08:06.239Z,1013.64
2019-03-06T07:13:06.894Z,1013.52
2019-03-06T07:18:06.939Z,1013.54
2019-03-06T07:23:06.108Z,1013.4
2019-03-06T07:28:06.306Z,1013.41
2019-03-06T07:33:06.268Z,1013.23
2019-03-06T07:37:07.069Z,1013.24
2019-03-06T07:42:07.588Z,1013.31
2019-03-06T07:47:07.797Z,1013.22
2019-03-06T07:52:06.836Z,1013.4
2019-03-06T07:57:07.629Z,1013.34
2019-03-06T08:02:07.476Z,1013.26
2019-03-06T08:07:07.129Z,1013.18
2019-03-06T08:12:06.567Z,1013.03
2019-03-06T08:17:07.805Z,1012.97
2019-03-06T08:22:07.262Z,1013
2019-03-06T08:26:08.332Z,1013.17
2019-03-06T08:31:06.696Z,1013.01
2019-03-06T08:36:07.830Z,1012.96
2019-03-06T08:41:07.039Z,1012.88
2019-03-06T08:46:07.717Z,1012.78
2019-03-06T08:51:07.508Z,1012.74
2019-03-06T08:56:06.980Z,1012.63
2019-03-06T09:01:06.923Z,1012.67
2019-03-06T09:06:07.728Z,1012.44
2019-03-06T09:11:06.557Z,1012.39
2019-03-06T09:15:11.305Z,1012.27
2019-03-06T09:16:07.320Z,1012.27
2019-03-06T09:20:08.406Z,1012.24
2019-03-06T09:25:07.113Z,1012.27
2019-03-06T09:30:15.891Z,1012.2
2019-03-06T09:35:08.747Z,1012.24
2019-03-06T09:40:07.868Z,1012.09
2019-03-06T09:45:08.246Z,1012.06
2019-03-06T09:49:12.430Z,1011.99
2019-03-06T09:54:07.737Z,1011.93
2019-03-06T09:59:07.084Z,1011.9
2019-03-06T10:04:06.245Z,1011.84
2019-03-06T10:09:06.919Z,1011.78
2019-03-06T10:14:06.123Z,1011.79
2019-03-06T10:19:06.770Z,1011.7
2019-03-06T10:24:06.889Z,1011.47
2019-03-06T10:28:07.677Z,1011.42
2019-03-06T10:33:07.270Z,1011.5
2019-03-06T10:38:08.285Z,1011.41
2019-03-06T10:43:07.746Z,1011.3
2019-03-06T10:48:07.499Z,1011.27
2019-03-06T10:53:06.955Z,1011.21
2019-03-06T10:57:06.923Z,1011.14
2019-03-06T11:02:07.185Z,1011.09
2019-03-06T11:07:08.247Z,1011.09
2019-03-06T11:12:07.957Z,1011.05
2019-03-06T11:17:07.752Z,1010.97
2019-03-06T11:22:06.667Z,1010.95
2019-03-06T11:27:06.301Z,1010.85
2019-03-06T11:32:06.415Z,1010.73
2019-03-06T11:36:07.701Z,1010.68
2019-03-06T11:41:07.331Z,1010.68
2019-03-06T11:46:06.636Z,1010.6
2019-03-06T11:47:06.852Z,1010.6
2019-03-06T11:52:07.124Z,1010.56
2019-03-06T11:57:07.026Z,1010.52
2019-03-06T12:01:06.769Z,1010.38
2019-03-06T12:07:07.018Z,1010.34
2019-03-06T12:11:06.764Z,1010.1
2019-03-06T12:16:06.468Z,1009.97
2019-03-06T12:21:07.372Z,1009.88
2019-03-06T12:26:06.961Z,1009.83
2019-03-06T12:31:07.515Z,1009.67
2019-03-06T12:36:07.480Z,1009.53
2019-03-06T12:40:15.245Z,1009.31
2019-03-06T12:45:08.187Z,1009.12
2019-03-06T12:50:06.742Z,1008.99
2019-03-06T12:55:07.382Z,1008.9
2019-03-06T13:00:09.487Z,1008.8
2019-03-06T13:05:06.487Z,1008.79
2019-03-06T13:10:06.240Z,1008.7
2019-03-06T13:14:06.606Z,1008.61
2019-03-06T13:20:06.490Z,1008.47
2019-03-06T13:25:08.198Z,1008.34
2019-03-06T13:30:09.290Z,1008.26
2019-03-06T13:35:06.907Z,1008.25
2019-03-06T13:40:06.536Z,1008.11
2019-03-06T13:45:09.665Z,1008.04
2019-03-06T13:50:07.441Z,1007.87
2019-03-06T13:54:08.003Z,1007.82
2019-03-06T13:55:06.200Z,1007.82
2019-03-06T13:59:07.208Z,1007.68
2019-03-06T14:04:06.869Z,1007.61
2019-03-06T14:09:06.927Z,1007.47
2019-03-06T14:14:06.142Z,1007.32
2019-03-06T14:19:07.381Z,1007.09
2019-03-06T14:24:08.308Z,1006.97
2019-03-06T14:29:07.358Z,1006.84
2019-03-06T14:33:06.772Z,1006.89
2019-03-06T14:38:08.071Z,1006.81
2019-03-06T14:43:07.549Z,1006.7
2019-03-06T14:48:06.536Z,1006.64
2019-03-06T14:53:06.859Z,1006.49
2019-03-06T14:58:07.486Z,1006.48
2019-03-06T15:02:07.969Z,1006.43
2019-03-06T15:07:06.366Z,1006.36
2019-03-06T15:12:07.769Z,1006.27
2019-03-06T15:17:07.556Z,1006.16
2019-03-06T15:22:07.111Z,1006.03
2019-03-06T15:27:06.378Z,1006.05
2019-03-06T15:32:08.386Z,1006.01
2019-03-06T15:37:07.501Z,1005.88
2019-03-06T15:42:07.199Z,1005.88
2019-03-06T15:47:07.117Z,1005.75
2019-03-06T15:52:07.373Z,1005.77
2019-03-06T15:56:07.953Z,1005.57
2019-03-06T16:01:06.129Z,1005.32
2019-03-06T16:06:06.469Z,1005.28
2019-03-06T16:11:06.251Z,1005.22
2019-03-06T16:16:07.252Z,1005.15
2019-03-06T16:21:07.618Z,1005.13
2019-03-06T16:26:06.879Z,1005.07
2019-03-06T16:31:06.900Z,1004.99
2019-03-06T16:36:06.855Z,1005
2019-03-06T16:41:07.568Z,1005.02
2019-03-06T16:45:09.537Z,1005
2019-03-06T16:46:06.765Z,1005
2019-03-06T16:50:13.648Z,1004.82
2019-03-06T16:55:06.497Z,1004.75
2019-03-06T17:00:08.963Z,1004.77
2019-03-06T17:05:06.249Z,1004.77
2019-03-06T17:10:06.194Z,1004.76
2019-03-06T17:15:09.466Z,1004.71
2019-03-06T17:19:08.316Z,1004.65
2019-03-06T17:25:07.036Z,1004.63
2019-03-06T17:29:06.289Z,1004.63
2019-03-06T17:34:06.262Z,1004.63
2019-03-06T17:39:07.261Z,1004.62
2019-03-06T17:44:06.480Z,1004.49
2019-03-06T17:49:06.302Z,1004.45
2019-03-06T17:54:06.619Z,1004.38
2019-03-06T17:59:07.830Z,1004.29
2019-03-06T18:04:06.906Z,1004.2
2019-03-06T18:09:06.550Z,1004.07
2019-03-06T18:14:06.877Z,1004.08
2019-03-06T18:19:06.785Z,1003.97
2019-03-06T18:23:07.070Z,1004.08
2019-03-06T18:28:06.353Z,1004.05
2019-03-06T18:33:06.147Z,1003.9
2019-03-06T18:38:07.463Z,1003.89
2019-03-06T18:43:06.269Z,1003.8
2019-03-06T18:48:06.439Z,1003.8
2019-03-06T18:53:06.744Z,1003.77
2019-03-06T18:57:07.390Z,1003.65
2019-03-06T18:58:06.587Z,1003.65
2019-03-06T19:02:07.077Z,1003.61
2019-03-06T19:07:06.310Z,1003.42
2019-03-06T19:12:06.962Z,1003.46
2019-03-06T19:17:06.799Z,1003.47
2019-03-06T19:22:07.130Z,1003.4
2019-03-06T19:27:06.468Z,1003.29
2019-03-06T19:32:06.802Z,1003.22
2019-03-06T19:37:06.134Z,1003.25
2019-03-06T19:42:06.772Z,1003.22
2019-03-06T19:46:06.539Z,1003.19
2019-03-06T19:51:06.769Z,1003.12
2019-03-06T19:56:07.085Z,1003.09
2019-03-06T20:01:06.543Z,1002.98
2019-03-06T20:06:06.832Z,1002.97
2019-03-06T20:11:06.525Z,1003.01
2019-03-06T20:16:06.113Z,1003.01
2019-03-06T20:21:06.504Z,1002.94
2019-03-06T20:26:13.666Z,1002.92
2019-03-06T20:30:08.340Z,1002.9
2019-03-06T20:31:07.102Z,1002.9
2019-03-06T20:35:06.851Z,1002.86
2019-03-06T20:36:06.049Z,1002.86
2019-03-06T20:40:06.717Z,1002.78
2019-03-06T20:45:07.914Z,1002.64
2019-03-06T20:50:06.877Z,1002.74
2019-03-06T20:55:06.241Z,1002.78
2019-03-06T21:00:08.608Z,1002.68
2019-03-06T21:05:06.792Z,1002.73
2019-03-06T21:09:07.609Z,1002.76
2019-03-06T21:10:06.925Z,1002.76
2019-03-06T21:14:06.207Z,1002.6
2019-03-06T21:19:06.348Z,1002.63
2019-03-06T21:24:06.617Z,1002.57
2019-03-06T21:29:06.912Z,1002.59
2019-03-06T21:34:08.145Z,1002.61
2019-03-06T21:39:07.598Z,1002.62
2019-03-06T21:44:06.296Z,1002.6
2019-03-06T21:49:06.229Z,1002.66
2019-03-06T21:54:06.568Z,1002.44
2019-03-06T21:59:06.836Z,1002.04
2019-03-06T22:03:07.295Z,1002.03
2019-03-06T22:09:06.904Z,1001.82
2019-03-06T22:13:07.417Z,1001.85
2019-03-06T22:18:06.349Z,1001.96
2019-03-06T22:23:06.575Z,1001.98
2019-03-06T22:28:06.906Z,1001.81
2019-03-06T22:33:06.874Z,1001.63
2019-03-06T22:38:06.538Z,1001.51
2019-03-06T22:43:06.320Z,1001.6
2019-03-06T22:48:07.018Z,1001.49
2019-03-06T22:52:08.319Z,1001.48
2019-03-06T22:53:06.501Z,1001.48
2019-03-06T22:57:07.633Z,1001.36
2019-03-06T23:02:06.140Z,1001.32
2019-03-06T23:07:06.354Z,1001.33
2019-03-06T23:12:07.576Z,1001.43
2019-03-06T23:17:07.507Z,1001.34
2019-03-06T23:23:06.826Z,1001.31
2019-03-06T23:27:08.135Z,1001.28
2019-03-06T23:32:07.783Z,1001.13
2019-03-06T23:37:08.000Z,1001.12
2019-03-06T23:42:07.680Z,1001.09
2019-03-06T23:47:07.628Z,1001.12
2019-03-06T23:52:08.000Z,1001.01
2019-03-06T23:57:07.151Z,1001.12
